Terminal Aerodrome Forecast
Issued by NWS

Home | Current Version | Previous Version | Text Only | Print | Product List | Glossary On
Versions: 1 2 3 4 5 6 7 8 9 10 11 12 13 14 15 16 17 18 19
000
FTUS42 KTAE 252300
TAFECP
TAF
KECP 252339Z 2600/2624 22012KT P6SM FEW040 SCT250
     FM260800 27012G24KT P6SM SCT040 BKN090
     FM261700 30017G27KT P6SM BKN040
     FM262300 32010G15KT P6SM SCT250=

USA.gov is the U.S. government's official web portal to all federal, state and local government web resources and services.